Terminal Aerodrome Forecast
Issued by NWS

Home | Current Version | Previous Version | Text Only | Print | Product List | Glossary On
Versions: 1 2 3 4 5 6 7 8 9 10 11 12 13 14
722
FTUS41 KBTV 162320
TAFMSS
TAF
KMSS 162320Z 1700/1724 23009KT P6SM FEW250
     FM170400 23005KT P6SM SCT250
     FM170900 00000KT P6SM SCT150
     FM171500 07006KT P6SM BKN120
     FM171800 06009KT P6SM VCSH OVC040
     FM172100 06010KT 1SM -SN BR OVC045=

USA.gov is the U.S. government's official web portal to all federal, state and local government web resources and services.